Time;durP1;ratioP1;P1;durP2;ratioP2;P2;SDS_P1;SDS_P2;PMS_P1;PMS_P2;Temp;Humidity;BMP_temperature;BMP_pressure;BME280_temperature;BME280_humidity;BME280_pressure;Samples;Min_cycle;Max_cycle;Signal;HPM_P1;HPM_P2
2023/06/06 00:00:17;;;;;;;11.75;6.22;;;;;;;;;;5113272;27;20040;-74
2023/06/06 00:02:44;;;;;;;10.13;6.60;;;;;;;;;;5109418;27;20047;-74
2023/06/06 00:05:12;;;;;;;15.63;7.40;;;;;;;;;;5099952;28;20044;-74
2023/06/06 00:07:40;;;;;;;12.70;5.88;;;;;;;;;;5112640;27;20039;-74
2023/06/06 00:10:08;;;;;;;14.73;6.03;;;;;;;;;;5093668;27;20058;-74
2023/06/06 00:12:34;;;;;;;15.32;6.53;;;;;;;;;;5121679;27;20043;-74
2023/06/06 00:15:00;;;;;;;11.23;6.18;;;;;;;;;;5091557;27;20078;-74
2023/06/06 00:17:27;;;;;;;9.25;6.25;;;;;;;;;;5094368;27;20375;-74
2023/06/06 00:19:54;;;;;;;14.48;6.68;;;;;;;;;;5092061;27;20031;-74
2023/06/06 00:22:22;;;;;;;10.75;6.05;;;;;;;;;;5094566;27;20125;-74
2023/06/06 00:24:49;;;;;;;11.55;6.57;;;;;;;;;;5113732;27;20047;-74
2023/06/06 00:27:15;;;;;;;15.50;6.78;;;;;;;;;;5097733;27;20181;-74
2023/06/06 00:29:41;;;;;;;14.18;6.55;;;;;;;;;;5097058;27;20067;-74
2023/06/06 00:32:07;;;;;;;11.25;6.15;;;;;;;;;;5092177;27;20063;-74
2023/06/06 00:34:34;;;;;;;10.38;5.60;;;;;;;;;;5092131;27;20578;-74
2023/06/06 00:37:01;;;;;;;17.60;6.40;;;;;;;;;;5121882;27;20146;-74
2023/06/06 00:39:27;;;;;;;11.98;6.20;;;;;;;;;;5116956;27;20074;-74
2023/06/06 00:41:53;;;;;;;10.95;5.53;;;;;;;;;;5091939;27;20051;-74
2023/06/06 00:44:20;;;;;;;14.10;6.88;;;;;;;;;;5106427;27;20177;-74
2023/06/06 00:46:47;;;;;;;12.10;6.45;;;;;;;;;;5136373;27;20044;-74
2023/06/06 00:49:14;;;;;;;13.52;5.97;;;;;;;;;;5101529;27;20466;-74
2023/06/06 00:51:41;;;;;;;15.52;5.95;;;;;;;;;;5098141;27;20079;-74
2023/06/06 00:54:07;;;;;;;11.68;6.38;;;;;;;;;;5098899;27;20219;-74
2023/06/06 00:56:36;;;;;;;14.50;6.63;;;;;;;;;;5128997;27;20553;-74
2023/06/06 00:59:03;;;;;;;22.42;7.38;;;;;;;;;;5132672;27;20047;-74
2023/06/06 01:01:29;;;;;;;13.30;6.93;;;;;;;;;;5094124;27;20051;-74
2023/06/06 01:04:00;;;;;;;15.77;7.30;;;;;;;;;;5096239;27;20131;-74
2023/06/06 01:06:26;;;;;;;12.98;7.00;;;;;;;;;;5105245;27;20040;-74
2023/06/06 01:08:53;;;;;;;12.18;6.05;;;;;;;;;;5103144;27;20048;-74
2023/06/06 01:11:24;;;;;;;15.27;7.75;;;;;;;;;;5097532;27;20460;-74
2023/06/06 01:14:01;;;;;;;17.00;7.28;;;;;;;;;;5094923;27;20044;-74
2023/06/06 01:16:30;;;;;;;13.07;6.40;;;;;;;;;;5092905;27;20062;-74
2023/06/06 01:18:57;;;;;;;13.40;6.78;;;;;;;;;;5098328;27;20398;-74
2023/06/06 01:21:24;;;;;;;13.68;6.45;;;;;;;;;;5085540;28;20462;-74
2023/06/06 01:23:51;;;;;;;15.50;7.03;;;;;;;;;;5133870;27;21335;-74
2023/06/06 01:26:17;;;;;;;14.55;6.82;;;;;;;;;;5094579;27;20396;-74
2023/06/06 01:28:43;;;;;;;12.52;6.90;;;;;;;;;;5109049;27;20086;-74
2023/06/06 01:31:12;;;;;;;11.98;6.80;;;;;;;;;;5111003;27;20394;-74
2023/06/06 01:33:39;;;;;;;13.20;6.90;;;;;;;;;;5097685;27;20440;-74
2023/06/06 01:36:26;;;;;;;12.05;6.78;;;;;;;;;;5115139;27;20035;-74
2023/06/06 01:38:56;;;;;;;12.60;7.13;;;;;;;;;;5101206;27;20040;-74
2023/06/06 01:41:23;;;;;;;15.95;7.90;;;;;;;;;;5099846;27;20083;-74
2023/06/06 01:43:51;;;;;;;16.70;7.10;;;;;;;;;;5135123;27;20053;-74
2023/06/06 01:46:17;;;;;;;12.05;7.30;;;;;;;;;;5097923;27;20347;-74
2023/06/06 01:48:44;;;;;;;14.50;7.43;;;;;;;;;;5111850;27;20150;-74
2023/06/06 01:51:10;;;;;;;13.80;7.70;;;;;;;;;;5094380;27;20055;-74
2023/06/06 01:53:36;;;;;;;16.00;8.48;;;;;;;;;;5092837;27;20421;-74
2023/06/06 01:56:02;;;;;;;17.70;8.52;;;;;;;;;;5101823;27;20405;-74
2023/06/06 01:58:29;;;;;;;17.83;7.95;;;;;;;;;;5091374;27;20638;-74
2023/06/06 02:00:55;;;;;;;15.18;8.20;;;;;;;;;;5125981;27;20046;-74
2023/06/06 02:03:21;;;;;;;14.27;8.30;;;;;;;;;;5124804;27;20090;-74
2023/06/06 02:05:47;;;;;;;21.63;8.75;;;;;;;;;;5091084;27;20044;-74
2023/06/06 02:08:13;;;;;;;13.05;7.97;;;;;;;;;;5089932;27;20063;-74
2023/06/06 02:10:40;;;;;;;14.45;7.70;;;;;;;;;;5111403;27;20107;-74
2023/06/06 02:13:06;;;;;;;16.20;8.20;;;;;;;;;;5125010;27;20101;-74
2023/06/06 02:15:32;;;;;;;15.60;6.93;;;;;;;;;;5091210;27;20508;-74
2023/06/06 02:17:58;;;;;;;15.23;7.60;;;;;;;;;;5099285;27;20065;-74
2023/06/06 02:20:24;;;;;;;13.65;7.22;;;;;;;;;;5089339;27;20050;-74
2023/06/06 02:22:50;;;;;;;14.90;7.50;;;;;;;;;;5097600;27;20054;-74
2023/06/06 02:25:17;;;;;;;15.15;7.38;;;;;;;;;;5112920;27;20046;-74
2023/06/06 02:27:47;;;;;;;10.93;6.72;;;;;;;;;;5089088;27;20074;-74
2023/06/06 02:30:13;;;;;;;15.52;7.15;;;;;;;;;;5067598;27;20070;-74
2023/06/06 02:32:41;;;;;;;14.65;7.75;;;;;;;;;;5087501;27;20602;-74
2023/06/06 02:35:08;;;;;;;16.15;8.60;;;;;;;;;;5086116;27;20188;-74
2023/06/06 02:37:34;;;;;;;12.63;7.03;;;;;;;;;;5095421;28;20067;-74
2023/06/06 02:40:08;;;;;;;13.70;7.25;;;;;;;;;;5090542;27;20035;-74
2023/06/06 02:42:36;;;;;;;13.52;6.90;;;;;;;;;;5072401;27;20116;-74
2023/06/06 02:45:02;;;;;;;12.70;6.97;;;;;;;;;;5091790;28;20044;-74
2023/06/06 02:47:29;;;;;;;13.00;7.15;;;;;;;;;;5077268;28;20044;-74
2023/06/06 02:49:55;;;;;;;15.65;6.97;;;;;;;;;;5074990;28;20055;-74
2023/06/06 02:52:23;;;;;;;12.70;7.70;;;;;;;;;;5098730;27;20040;-74
2023/06/06 02:54:49;;;;;;;14.73;7.38;;;;;;;;;;5102456;27;20051;-74
2023/06/06 02:57:15;;;;;;;21.27;8.60;;;;;;;;;;5111051;27;20402;-74
2023/06/06 02:59:41;;;;;;;13.95;7.65;;;;;;;;;;5089580;28;20051;-74
2023/06/06 03:02:08;;;;;;;15.98;7.50;;;;;;;;;;5089489;28;20506;-75
2023/06/06 03:04:34;;;;;;;13.13;7.03;;;;;;;;;;5106975;28;20036;-74
2023/06/06 03:07:00;;;;;;;10.60;6.80;;;;;;;;;;5081479;28;20054;-74
2023/06/06 03:09:27;;;;;;;11.70;7.15;;;;;;;;;;5069351;28;20051;-74
2023/06/06 03:11:54;;;;;;;15.13;7.32;;;;;;;;;;5090718;28;20048;-74
2023/06/06 03:14:20;;;;;;;14.20;6.95;;;;;;;;;;5058845;28;20122;-74
2023/06/06 03:16:51;;;;;;;15.85;7.05;;;;;;;;;;5101261;27;20959;-74
2023/06/06 03:19:17;;;;;;;17.73;8.10;;;;;;;;;;5072118;28;20036;-74
2023/06/06 03:21:43;;;;;;;19.65;8.15;;;;;;;;;;5069558;28;20756;-75
2023/06/06 03:24:10;;;;;;;16.27;7.82;;;;;;;;;;5069901;28;20035;-74
2023/06/06 03:26:39;;;;;;;18.85;7.70;;;;;;;;;;5107923;27;20046;-74
2023/06/06 03:29:06;;;;;;;15.05;8.32;;;;;;;;;;5068208;28;20101;-74
2023/06/06 03:31:32;;;;;;;17.38;8.85;;;;;;;;;;5088512;28;20150;-74
2023/06/06 03:33:59;;;;;;;14.45;7.88;;;;;;;;;;5089229;28;20410;-74
2023/06/06 03:36:26;;;;;;;15.40;7.68;;;;;;;;;;5088647;28;20046;-74
2023/06/06 03:38:52;;;;;;;17.00;8.30;;;;;;;;;;5087177;28;20043;-74
2023/06/06 03:41:18;;;;;;;13.57;8.13;;;;;;;;;;5121137;27;20055;-74
2023/06/06 03:43:45;;;;;;;14.27;7.57;;;;;;;;;;5089643;28;20066;-74
2023/06/06 03:46:11;;;;;;;16.85;8.07;;;;;;;;;;5088067;28;20040;-74
2023/06/06 03:48:37;;;;;;;14.43;8.25;;;;;;;;;;5122030;27;20043;-74
2023/06/06 03:51:03;;;;;;;14.75;8.02;;;;;;;;;;5122374;27;20379;-74
2023/06/06 03:53:29;;;;;;;13.85;7.53;;;;;;;;;;5108526;27;20620;-74
2023/06/06 03:55:58;;;;;;;17.80;8.18;;;;;;;;;;5093657;27;20076;-74
2023/06/06 03:58:25;;;;;;;14.52;7.38;;;;;;;;;;5126868;27;20047;-74
2023/06/06 04:00:51;;;;;;;11.77;7.22;;;;;;;;;;5096121;27;20719;-74
2023/06/06 04:03:18;;;;;;;13.07;7.03;;;;;;;;;;5094197;27;20051;-74
2023/06/06 04:05:45;;;;;;;13.27;7.75;;;;;;;;;;5091197;27;20043;-74
2023/06/06 04:08:12;;;;;;;16.38;8.15;;;;;;;;;;5080791;27;20069;-74
2023/06/06 04:10:38;;;;;;;21.38;7.68;;;;;;;;;;5091270;27;20052;-74
2023/06/06 04:13:04;;;;;;;15.88;6.63;;;;;;;;;;5093718;27;20043;-74
2023/06/06 04:15:30;;;;;;;13.35;7.32;;;;;;;;;;5093577;27;20107;-74
2023/06/06 04:17:57;;;;;;;18.75;7.80;;;;;;;;;;5126339;27;20055;-74
2023/06/06 04:20:26;;;;;;;16.17;7.28;;;;;;;;;;5095995;27;20127;-74
2023/06/06 04:22:53;;;;;;;13.45;8.05;;;;;;;;;;5090551;28;20046;-74
2023/06/06 04:25:19;;;;;;;12.80;7.45;;;;;;;;;;5088909;27;20067;-74
2023/06/06 04:27:45;;;;;;;16.50;8.45;;;;;;;;;;5087468;27;20104;-74
2023/06/06 04:30:13;;;;;;;18.20;8.35;;;;;;;;;;5090944;28;20130;-75
2023/06/06 04:32:39;;;;;;;16.17;7.43;;;;;;;;;;5123565;27;20066;-75
2023/06/06 04:35:07;;;;;;;16.27;7.95;;;;;;;;;;5124520;27;20101;-74
2023/06/06 04:37:33;;;;;;;16.05;7.40;;;;;;;;;;5096326;27;20139;-74
2023/06/06 04:40:00;;;;;;;18.60;8.57;;;;;;;;;;5094410;27;20054;-74
2023/06/06 04:42:32;;;;;;;14.98;6.80;;;;;;;;;;5124652;27;20215;-74
2023/06/06 04:45:02;;;;;;;18.55;7.45;;;;;;;;;;5092166;27;20043;-74
2023/06/06 04:47:29;;;;;;;15.40;7.07;;;;;;;;;;5091492;28;20856;-71
2023/06/06 04:49:56;;;;;;;15.40;8.10;;;;;;;;;;5092880;28;20127;-71
2023/06/06 04:52:23;;;;;;;14.40;7.55;;;;;;;;;;5105448;27;20655;-72
2023/06/06 04:54:51;;;;;;;11.90;6.53;;;;;;;;;;5092214;28;20463;-71
2023/06/06 04:57:17;;;;;;;17.33;7.40;;;;;;;;;;5109766;27;20372;-71
2023/06/06 04:59:50;;;;;;;14.63;6.43;;;;;;;;;;5108279;27;20035;-72
2023/06/06 05:02:20;;;;;;;12.48;6.82;;;;;;;;;;5139231;27;20118;-77
2023/06/06 05:04:47;;;;;;;19.00;7.13;;;;;;;;;;5103596;27;20046;-77
2023/06/06 05:07:13;;;;;;;19.38;7.18;;;;;;;;;;5105216;27;20124;-74
2023/06/06 05:09:39;;;;;;;16.67;7.07;;;;;;;;;;5103297;28;20047;-77
2023/06/06 05:12:06;;;;;;;11.90;6.05;;;;;;;;;;5101841;27;20043;-77
2023/06/06 05:14:32;;;;;;;14.07;6.63;;;;;;;;;;5106763;27;20063;-76
2023/06/06 05:16:58;;;;;;;16.27;7.53;;;;;;;;;;5099568;27;20044;-71
2023/06/06 05:19:24;;;;;;;17.05;6.80;;;;;;;;;;5131957;27;20518;-71
2023/06/06 05:21:51;;;;;;;14.13;7.05;;;;;;;;;;5106441;27;20047;-71
2023/06/06 05:24:17;;;;;;;12.30;5.65;;;;;;;;;;5103276;27;20172;-71
2023/06/06 05:26:43;;;;;;;10.93;5.68;;;;;;;;;;5104088;27;20051;-72
2023/06/06 05:29:10;;;;;;;13.20;5.90;;;;;;;;;;5123653;27;20044;-72
2023/06/06 05:31:36;;;;;;;12.25;5.97;;;;;;;;;;5133366;27;20044;-72
2023/06/06 05:34:03;;;;;;;13.60;6.28;;;;;;;;;;5107363;27;20127;-71
2023/06/06 05:36:29;;;;;;;12.93;6.15;;;;;;;;;;5099476;27;20048;-71
2023/06/06 05:38:56;;;;;;;17.48;6.75;;;;;;;;;;5107384;27;20039;-78
2023/06/06 05:41:22;;;;;;;16.85;6.95;;;;;;;;;;5109796;27;20063;-71
2023/06/06 05:43:49;;;;;;;18.35;6.35;;;;;;;;;;5114035;27;20139;-71
2023/06/06 05:46:15;;;;;;;11.63;5.78;;;;;;;;;;5113409;27;20132;-71
2023/06/06 05:48:41;;;;;;;12.23;5.80;;;;;;;;;;5112564;27;21522;-71
2023/06/06 05:51:08;;;;;;;14.82;5.95;;;;;;;;;;5112591;27;20191;-71
2023/06/06 05:53:34;;;;;;;16.08;5.65;;;;;;;;;;5109883;27;20035;-71
2023/06/06 05:56:00;;;;;;;14.00;5.28;;;;;;;;;;5110749;27;20394;-71
2023/06/06 05:58:27;;;;;;;9.85;5.22;;;;;;;;;;5102922;27;20145;-71
2023/06/06 06:00:53;;;;;;;14.73;5.85;;;;;;;;;;5100813;27;20425;-71
2023/06/06 06:03:21;;;;;;;9.50;5.13;;;;;;;;;;5104096;27;20601;-71
2023/06/06 06:05:47;;;;;;;13.77;4.90;;;;;;;;;;5104398;27;20054;-71
2023/06/06 06:08:14;;;;;;;14.20;5.25;;;;;;;;;;5103056;27;20079;-71
2023/06/06 06:10:40;;;;;;;11.60;5.05;;;;;;;;;;5113350;27;20046;-71
2023/06/06 06:13:06;;;;;;;8.02;3.95;;;;;;;;;;5090310;28;20071;-71
2023/06/06 06:15:34;;;;;;;8.98;4.38;;;;;;;;;;5103350;27;20051;-70
2023/06/06 06:18:01;;;;;;;7.78;3.55;;;;;;;;;;5099384;27;20059;-70
2023/06/06 06:20:27;;;;;;;12.55;4.15;;;;;;;;;;5107767;27;20126;-71
2023/06/06 06:22:53;;;;;;;13.82;4.32;;;;;;;;;;5105685;27;20039;-70
2023/06/06 06:25:20;;;;;;;9.85;5.18;;;;;;;;;;5105120;27;20036;-70
2023/06/06 06:27:46;;;;;;;9.57;4.13;;;;;;;;;;5097911;27;20106;-70
2023/06/06 06:30:14;;;;;;;10.93;4.75;;;;;;;;;;5100166;27;20059;-70
2023/06/06 06:32:42;;;;;;;9.88;4.07;;;;;;;;;;5084381;27;20052;-70
2023/06/06 06:35:08;;;;;;;16.30;3.75;;;;;;;;;;5081462;27;20039;-70
2023/06/06 06:37:37;;;;;;;9.45;4.20;;;;;;;;;;5107327;27;20152;-70
2023/06/06 06:40:08;;;;;;;9.20;3.95;;;;;;;;;;5087502;27;20032;-70
2023/06/06 06:42:34;;;;;;;10.25;3.83;;;;;;;;;;5106583;27;20130;-70
2023/06/06 06:45:00;;;;;;;9.55;4.07;;;;;;;;;;5107514;27;20039;-70
2023/06/06 06:47:26;;;;;;;11.30;4.25;;;;;;;;;;5111411;27;20047;-70
2023/06/06 06:49:52;;;;;;;9.15;4.60;;;;;;;;;;5114105;27;20065;-70
2023/06/06 06:52:19;;;;;;;13.80;4.05;;;;;;;;;;5103769;27;20439;-71
2023/06/06 06:54:46;;;;;;;11.55;4.72;;;;;;;;;;5104849;27;20035;-74
2023/06/06 06:57:12;;;;;;;8.85;3.92;;;;;;;;;;5090766;27;20043;-74
2023/06/06 06:59:39;;;;;;;8.05;3.92;;;;;;;;;;5137323;27;20058;-74
2023/06/06 07:02:05;;;;;;;8.35;3.97;;;;;;;;;;5113853;27;20580;-74
2023/06/06 07:04:31;;;;;;;9.80;4.30;;;;;;;;;;5101192;28;20391;-71
2023/06/06 07:06:57;;;;;;;10.10;4.20;;;;;;;;;;5107125;27;20051;-71
2023/06/06 07:09:24;;;;;;;8.63;4.30;;;;;;;;;;5103818;27;20410;-71
2023/06/06 07:11:50;;;;;;;12.45;4.47;;;;;;;;;;5103350;27;20036;-71
2023/06/06 07:14:16;;;;;;;9.95;4.38;;;;;;;;;;5104804;28;20036;-71
2023/06/06 07:16:43;;;;;;;10.70;4.13;;;;;;;;;;5087580;28;20435;-71
2023/06/06 07:19:09;;;;;;;11.23;4.38;;;;;;;;;;5108991;28;20285;-71
2023/06/06 07:21:36;;;;;;;12.52;5.03;;;;;;;;;;5105003;28;20048;-71
2023/06/06 07:24:02;;;;;;;12.52;4.78;;;;;;;;;;5104697;28;20051;-71
2023/06/06 07:26:29;;;;;;;8.50;3.40;;;;;;;;;;5113656;27;20162;-71
2023/06/06 07:28:55;;;;;;;8.45;3.97;;;;;;;;;;5110840;27;20075;-71
2023/06/06 07:31:21;;;;;;;11.05;4.68;;;;;;;;;;5105387;27;20051;-74
2023/06/06 07:33:48;;;;;;;9.27;4.00;;;;;;;;;;5107552;27;20082;-74
2023/06/06 07:36:14;;;;;;;8.35;3.80;;;;;;;;;;5106102;27;20563;-74
2023/06/06 07:38:41;;;;;;;8.73;3.78;;;;;;;;;;5109104;27;20043;-74
2023/06/06 07:41:07;;;;;;;14.98;4.97;;;;;;;;;;5109283;27;21479;-75
2023/06/06 07:43:33;;;;;;;10.32;3.97;;;;;;;;;;5109363;27;20444;-74
2023/06/06 07:45:59;;;;;;;6.90;3.58;;;;;;;;;;5107612;27;20050;-70
2023/06/06 07:48:26;;;;;;;10.35;4.63;;;;;;;;;;5111019;27;20042;-74
2023/06/06 07:50:52;;;;;;;8.40;3.97;;;;;;;;;;5105916;27;20071;-73
2023/06/06 07:53:18;;;;;;;10.10;4.28;;;;;;;;;;5113616;27;20211;-73
2023/06/06 07:55:44;;;;;;;11.10;4.25;;;;;;;;;;5108553;27;20043;-74
2023/06/06 07:58:10;;;;;;;12.40;4.60;;;;;;;;;;5110268;27;20459;-73
2023/06/06 08:00:37;;;;;;;11.13;3.95;;;;;;;;;;5107348;27;20055;-73
2023/06/06 08:03:03;;;;;;;11.73;5.18;;;;;;;;;;5109065;27;20039;-72
2023/06/06 08:05:33;;;;;;;11.10;3.63;;;;;;;;;;5113016;27;20048;-76
2023/06/06 08:08:00;;;;;;;9.90;4.68;;;;;;;;;;5108120;27;20581;-75
2023/06/06 08:10:27;;;;;;;11.70;3.90;;;;;;;;;;5107996;27;20367;-76
2023/06/06 08:12:53;;;;;;;11.93;4.57;;;;;;;;;;5111848;27;20063;-75
2023/06/06 08:15:19;;;;;;;12.88;5.10;;;;;;;;;;5115446;27;20394;-75
2023/06/06 08:17:46;;;;;;;11.00;4.60;;;;;;;;;;5113459;27;20105;-75
2023/06/06 08:20:12;;;;;;;8.75;4.68;;;;;;;;;;5110753;27;20051;-75
2023/06/06 08:22:38;;;;;;;9.07;4.30;;;;;;;;;;5109046;27;20047;-76
2023/06/06 08:25:06;;;;;;;11.10;4.63;;;;;;;;;;5107916;27;20386;-75
2023/06/06 08:27:32;;;;;;;11.35;4.72;;;;;;;;;;5104522;27;20100;-75
2023/06/06 08:30:00;;;;;;;9.30;4.25;;;;;;;;;;5092405;27;20047;-75
2023/06/06 08:32:27;;;;;;;11.60;4.45;;;;;;;;;;5109328;27;20047;-75
2023/06/06 08:34:55;;;;;;;10.07;4.22;;;;;;;;;;5109763;27;20047;-75
2023/06/06 08:37:21;;;;;;;10.57;4.57;;;;;;;;;;5116451;27;20322;-75
2023/06/06 08:39:47;;;;;;;11.98;3.92;;;;;;;;;;5098119;27;20674;-76
2023/06/06 08:42:16;;;;;;;8.07;3.75;;;;;;;;;;5115135;27;20126;-75
2023/06/06 08:44:42;;;;;;;11.38;4.15;;;;;;;;;;5118793;27;20546;-76
2023/06/06 08:47:09;;;;;;;10.35;3.92;;;;;;;;;;5115163;27;20059;-75
2023/06/06 08:49:37;;;;;;;8.85;3.63;;;;;;;;;;5097057;27;20085;-75
2023/06/06 08:52:03;;;;;;;9.52;3.83;;;;;;;;;;5107930;27;20486;-75
2023/06/06 08:54:30;;;;;;;11.07;3.80;;;;;;;;;;5096268;27;20043;-76
2023/06/06 08:56:57;;;;;;;10.13;4.95;;;;;;;;;;5132270;27;20040;-75
2023/06/06 08:59:24;;;;;;;11.85;4.22;;;;;;;;;;5136042;27;20393;-75
2023/06/06 09:01:51;;;;;;;9.93;4.57;;;;;;;;;;5130727;27;20035;-75
2023/06/06 09:04:18;;;;;;;12.35;4.50;;;;;;;;;;5113537;27;20035;-76
2023/06/06 09:06:45;;;;;;;9.25;5.07;;;;;;;;;;5112331;27;20043;-75
2023/06/06 09:09:12;;;;;;;14.05;5.22;;;;;;;;;;5105617;27;20085;-75
2023/06/06 09:11:39;;;;;;;12.30;5.75;;;;;;;;;;5109856;27;20043;-76
2023/06/06 09:14:05;;;;;;;11.00;5.45;;;;;;;;;;5109928;27;20143;-75
2023/06/06 09:16:32;;;;;;;10.55;5.60;;;;;;;;;;5107015;27;20495;-75
2023/06/06 09:18:58;;;;;;;10.43;4.82;;;;;;;;;;5105883;27;20375;-75
2023/06/06 09:21:29;;;;;;;12.18;5.28;;;;;;;;;;5127086;27;20075;-75
2023/06/06 09:23:56;;;;;;;9.13;5.30;;;;;;;;;;5127103;27;20050;-75
2023/06/06 09:26:23;;;;;;;10.82;4.38;;;;;;;;;;5107760;27;20552;-75
2023/06/06 09:28:50;;;;;;;7.88;4.50;;;;;;;;;;5107504;27;22058;-75
2023/06/06 09:31:23;;;;;;;9.00;4.22;;;;;;;;;;5125123;27;20086;-75
2023/06/06 09:33:51;;;;;;;10.23;5.03;;;;;;;;;;5106459;27;20043;-75
2023/06/06 09:36:20;;;;;;;7.65;4.50;;;;;;;;;;5108032;27;20026;-75
2023/06/06 09:38:46;;;;;;;8.38;4.40;;;;;;;;;;5091656;27;20064;-76
2023/06/06 09:41:13;;;;;;;10.82;4.20;;;;;;;;;;5114436;27;20039;-76
2023/06/06 09:43:39;;;;;;;9.75;4.13;;;;;;;;;;5147712;27;20066;-76
2023/06/06 09:46:05;;;;;;;9.13;4.45;;;;;;;;;;5112679;27;20455;-76
2023/06/06 09:48:32;;;;;;;10.48;3.95;;;;;;;;;;5109386;27;20039;-75
2023/06/06 09:50:58;;;;;;;11.02;4.20;;;;;;;;;;5151105;27;20039;-75
2023/06/06 09:53:25;;;;;;;13.73;4.88;;;;;;;;;;5111374;27;20038;-76
2023/06/06 09:55:52;;;;;;;12.02;4.25;;;;;;;;;;5106663;27;20126;-76
2023/06/06 09:58:20;;;;;;;9.75;4.00;;;;;;;;;;5107432;27;20051;-75
2023/06/06 10:00:47;;;;;;;9.80;4.13;;;;;;;;;;5112578;27;20058;-75
2023/06/06 10:03:18;;;;;;;9.60;4.85;;;;;;;;;;5107134;27;20039;-76
2023/06/06 10:05:51;;;;;;;11.35;4.78;;;;;;;;;;5121878;27;20121;-76
2023/06/06 10:08:17;;;;;;;10.88;5.07;;;;;;;;;;5137291;27;20043;-75
2023/06/06 10:10:46;;;;;;;8.82;4.53;;;;;;;;;;5111964;27;20065;-75
2023/06/06 10:13:13;;;;;;;10.00;4.88;;;;;;;;;;5124585;27;20062;-76
2023/06/06 10:15:40;;;;;;;11.75;4.85;;;;;;;;;;5118091;27;20064;-76
2023/06/06 10:18:08;;;;;;;12.25;5.07;;;;;;;;;;5106614;27;20130;-76
2023/06/06 10:20:35;;;;;;;9.32;4.68;;;;;;;;;;5106056;27;20385;-75
2023/06/06 10:23:02;;;;;;;11.18;5.65;;;;;;;;;;5107619;27;20472;-76
2023/06/06 10:25:28;;;;;;;8.52;4.60;;;;;;;;;;5108631;27;20122;-76
2023/06/06 10:28:09;;;;;;;13.40;5.65;;;;;;;;;;5109088;27;20131;-76
2023/06/06 10:30:36;;;;;;;13.35;5.78;;;;;;;;;;5106314;27;20054;-76
2023/06/06 10:33:03;;;;;;;10.00;5.13;;;;;;;;;;5104947;27;20045;-76
2023/06/06 10:35:30;;;;;;;11.68;4.97;;;;;;;;;;5107379;27;20034;-76
2023/06/06 10:38:03;;;;;;;11.18;6.32;;;;;;;;;;5110365;27;20043;-76
2023/06/06 10:40:29;;;;;;;;;;;;;;;;;;5107437;27;20512;-76
2023/06/06 10:42:55;;;;;;;9.95;4.80;;;;;;;;;;5140658;27;19923;-76
2023/06/06 10:45:41;;;;;;;13.25;4.95;;;;;;;;;;5109480;27;20039;-76
2023/06/06 10:48:07;;;;;;;11.10;5.03;;;;;;;;;;5106459;27;20046;-76
2023/06/06 10:50:33;;;;;;;9.85;4.60;;;;;;;;;;5105580;27;20141;-76
2023/06/06 10:53:06;;;;;;;11.68;5.47;;;;;;;;;;5107941;27;20313;-76
2023/06/06 10:55:33;;;;;;;9.55;5.55;;;;;;;;;;5126084;27;20081;-76
2023/06/06 10:58:06;;;;;;;11.80;5.72;;;;;;;;;;5147383;27;20493;-76
2023/06/06 11:00:33;;;;;;;14.20;5.88;;;;;;;;;;5144066;27;20050;-76
2023/06/06 11:03:08;;;;;;;9.98;5.95;;;;;;;;;;5106341;27;20107;-76
2023/06/06 11:05:34;;;;;;;12.65;6.40;;;;;;;;;;5101359;27;20122;-76
2023/06/06 11:08:01;;;;;;;10.98;5.15;;;;;;;;;;5103791;27;20125;-76
2023/06/06 11:10:27;;;;;;;10.63;5.50;;;;;;;;;;5138358;27;20054;-76
2023/06/06 11:12:55;;;;;;;12.55;5.38;;;;;;;;;;5101880;27;20039;-76
2023/06/06 11:15:28;;;;;;;12.10;5.85;;;;;;;;;;5122995;27;20058;-76
2023/06/06 11:17:54;;;;;;;;;;;;;;;;;;5139130;27;20478;-76
2023/06/06 11:20:22;;;;;;;11.32;5.75;;;;;;;;;;5139520;27;19966;-76
2023/06/06 11:22:51;;;;;;;11.68;5.65;;;;;;;;;;5107192;27;20566;-76
2023/06/06 11:25:23;;;;;;;11.82;5.80;;;;;;;;;;5107157;27;20099;-76
2023/06/06 11:27:50;;;;;;;10.48;5.53;;;;;;;;;;5135741;27;20059;-76
2023/06/06 11:30:16;;;;;;;11.27;5.30;;;;;;;;;;5104428;28;20052;-76
2023/06/06 11:32:46;;;;;;;11.13;5.05;;;;;;;;;;5104357;28;20048;-76
2023/06/06 11:35:18;;;;;;;9.77;5.03;;;;;;;;;;5135716;27;20500;-76
2023/06/06 11:37:45;;;;;;;10.52;5.93;;;;;;;;;;5102094;28;20064;-77
2023/06/06 11:40:11;;;;;;;10.65;5.18;;;;;;;;;;5102577;28;20486;-76
2023/06/06 11:42:42;;;;;;;12.93;5.53;;;;;;;;;;5101360;28;20051;-76
2023/06/06 11:45:15;;;;;;;13.77;5.55;;;;;;;;;;5102107;28;20044;-76
2023/06/06 11:47:42;;;;;;;12.70;5.55;;;;;;;;;;5100102;28;20084;-76
2023/06/06 11:50:09;;;;;;;12.88;4.80;;;;;;;;;;5086810;28;20047;-76
2023/06/06 11:52:45;;;;;;;10.95;4.43;;;;;;;;;;5105717;28;20125;-76
2023/06/06 11:55:11;;;;;;;9.75;4.90;;;;;;;;;;5108517;28;20059;-76
2023/06/06 11:57:37;;;;;;;10.20;4.32;;;;;;;;;;5099724;28;20052;-76
2023/06/06 12:00:09;;;;;;;11.98;4.43;;;;;;;;;;5101267;28;20047;-76
2023/06/06 12:02:35;;;;;;;12.85;4.97;;;;;;;;;;5099856;28;20196;-76
2023/06/06 12:05:03;;;;;;;12.20;3.92;;;;;;;;;;5100350;28;20147;-76
2023/06/06 12:07:29;;;;;;;10.27;4.57;;;;;;;;;;5099882;28;20051;-76
2023/06/06 12:09:58;;;;;;;8.68;4.32;;;;;;;;;;5102892;27;20036;-76
2023/06/06 12:12:24;;;;;;;7.72;3.88;;;;;;;;;;5106799;27;20082;-76
2023/06/06 12:14:57;;;;;;;11.27;4.18;;;;;;;;;;5090334;28;20432;-73
2023/06/06 12:17:25;;;;;;;10.55;3.83;;;;;;;;;;5113308;27;20388;-73
2023/06/06 12:19:55;;;;;;;13.30;4.90;;;;;;;;;;5116636;27;20035;-73
2023/06/06 12:22:29;;;;;;;11.55;4.00;;;;;;;;;;5113088;27;20043;-73
2023/06/06 12:24:55;;;;;;;13.23;4.15;;;;;;;;;;5129305;27;20051;-73
2023/06/06 12:27:26;;;;;;;9.20;3.40;;;;;;;;;;5105879;27;20504;-73
2023/06/06 12:29:54;;;;;;;9.75;3.75;;;;;;;;;;5111481;27;20501;-73
2023/06/06 12:32:23;;;;;;;9.68;3.45;;;;;;;;;;5127774;27;20133;-73
2023/06/06 12:34:59;;;;;;;7.50;3.40;;;;;;;;;;5111064;27;20030;-73
2023/06/06 12:37:34;;;;;;;11.00;3.35;;;;;;;;;;5128541;27;20061;-71
2023/06/06 12:40:08;;;;;;;7.20;3.90;;;;;;;;;;5092333;27;20490;-71
2023/06/06 12:42:35;;;;;;;8.57;3.92;;;;;;;;;;5127436;27;20110;-71
2023/06/06 12:45:01;;;;;;;10.48;3.78;;;;;;;;;;5140361;27;20179;-71
2023/06/06 12:47:27;;;;;;;10.18;3.67;;;;;;;;;;5106524;27;20043;-71
2023/06/06 12:49:53;;;;;;;11.10;4.03;;;;;;;;;;5107280;27;20047;-71
2023/06/06 12:52:20;;;;;;;12.02;4.50;;;;;;;;;;5112381;27;20050;-71
2023/06/06 12:54:46;;;;;;;10.23;4.38;;;;;;;;;;5133370;27;20126;-71
2023/06/06 12:57:12;;;;;;;8.70;3.67;;;;;;;;;;5112820;27;21512;-71
2023/06/06 12:59:41;;;;;;;11.57;3.63;;;;;;;;;;5129826;27;20047;-71
2023/06/06 13:02:08;;;;;;;12.90;4.38;;;;;;;;;;5128142;27;20066;-71
2023/06/06 13:04:36;;;;;;;9.35;3.70;;;;;;;;;;5109953;27;20043;-71
2023/06/06 13:07:02;;;;;;;9.90;3.80;;;;;;;;;;5123501;27;20035;-71
2023/06/06 13:09:29;;;;;;;12.02;4.18;;;;;;;;;;5128225;27;20042;-71
2023/06/06 13:11:55;;;;;;;7.18;3.60;;;;;;;;;;5108509;27;20051;-71
2023/06/06 13:14:21;;;;;;;9.45;4.00;;;;;;;;;;5109603;27;20115;-70
2023/06/06 13:16:49;;;;;;;8.82;3.80;;;;;;;;;;5107420;27;20043;-70
2023/06/06 13:19:16;;;;;;;9.32;3.38;;;;;;;;;;5105880;27;20097;-71
2023/06/06 13:21:46;;;;;;;6.50;3.00;;;;;;;;;;5105084;27;20134;-71
2023/06/06 13:24:13;;;;;;;10.50;3.88;;;;;;;;;;5096697;27;20490;-71
2023/06/06 13:26:40;;;;;;;10.73;3.90;;;;;;;;;;5130547;27;20039;-71
2023/06/06 13:29:07;;;;;;;9.45;4.10;;;;;;;;;;5107934;27;20070;-71
2023/06/06 13:31:33;;;;;;;9.68;4.05;;;;;;;;;;5125098;27;20096;-71
2023/06/06 13:33:59;;;;;;;9.20;3.78;;;;;;;;;;5128646;27;20050;-71
2023/06/06 13:36:25;;;;;;;7.50;3.60;;;;;;;;;;5109283;27;20517;-71
2023/06/06 13:38:51;;;;;;;8.85;3.60;;;;;;;;;;5111848;27;20035;-71
2023/06/06 13:41:19;;;;;;;7.70;3.50;;;;;;;;;;5108157;27;20062;-71
2023/06/06 13:43:45;;;;;;;10.90;4.00;;;;;;;;;;5121134;27;20406;-71
2023/06/06 13:46:12;;;;;;;8.82;3.58;;;;;;;;;;5107530;27;20103;-71
2023/06/06 13:48:38;;;;;;;14.82;4.30;;;;;;;;;;5127320;27;20172;-71
2023/06/06 13:51:05;;;;;;;10.93;4.22;;;;;;;;;;5106290;27;20566;-71
2023/06/06 13:53:31;;;;;;;16.38;4.47;;;;;;;;;;5110370;27;20108;-71
2023/06/06 13:55:57;;;;;;;12.98;4.53;;;;;;;;;;5125248;27;20078;-71
2023/06/06 13:58:23;;;;;;;8.93;4.43;;;;;;;;;;5106532;27;20080;-71
2023/06/06 14:00:50;;;;;;;9.40;3.95;;;;;;;;;;5110310;27;20534;-70
2023/06/06 14:03:17;;;;;;;10.93;3.72;;;;;;;;;;5107734;27;20133;-72
2023/06/06 14:05:43;;;;;;;8.32;3.30;;;;;;;;;;5108975;27;20111;-74
2023/06/06 14:08:10;;;;;;;11.07;4.00;;;;;;;;;;5108626;27;20042;-74
2023/06/06 14:10:36;;;;;;;14.63;4.75;;;;;;;;;;5089246;27;20132;-74
2023/06/06 14:13:02;;;;;;;12.23;3.97;;;;;;;;;;5104263;27;20530;-74
2023/06/06 14:15:29;;;;;;;10.77;4.63;;;;;;;;;;5126731;27;20081;-74
2023/06/06 14:17:55;;;;;;;12.30;4.00;;;;;;;;;;5139569;27;20124;-74
2023/06/06 14:20:24;;;;;;;12.70;4.50;;;;;;;;;;5106106;27;20073;-74
2023/06/06 14:22:51;;;;;;;9.25;3.83;;;;;;;;;;5137151;27;20427;-74
2023/06/06 14:25:17;;;;;;;11.45;4.43;;;;;;;;;;5122552;27;20371;-74
2023/06/06 14:27:44;;;;;;;11.52;4.03;;;;;;;;;;5101313;27;20443;-74
2023/06/06 14:30:11;;;;;;;9.98;4.22;;;;;;;;;;5086309;27;20134;-74
2023/06/06 14:32:38;;;;;;;10.07;4.38;;;;;;;;;;5090799;27;20103;-74